x

Middle Nomad (46004) Wave Buoy

12:00am - Sun 23rd Nov 2014 All times are PST. -8 hours from GMT.

  • Sig Wave height 17.4ft
  • Peak Period 14s
  • Wind
    27mph, 36mph gusts
  • Air Temp 50°f
  • Sea Pressure 1005.8mb
  • Middle Nomad
  • Middle Nomad

More Historic Weather Station data

Upgrade to MSW Pro to gain access to the past 30 days of data for over 8000 Wavebouys and Weather Stations around the globe.

Join Pro

Comparision Forecast

View Surf forecast
   
Sun 11/23 12:00am 17.5ft 14s 27 36 mph 1005.8mb 50f
Sat 11/22 11:00pm 17.5ft 13s 29 34 mph 1004.6mb 49f
10:00pm 16.5ft 11s 27 34 mph 1003.7mb 48f
9:00pm 16ft 10s 31 36 mph 1002.2mb 50f
8:00pm 16.5ft 12s 29 36 mph 1001.3mb 50f
7:00pm 15.5ft 13s 27 34 mph 1000.4mb 50f
6:00pm 15.5ft 13s 29 36 mph 999.3mb 49f
5:00pm 14ft 12s 29 36 mph 998.1mb 49f
4:00pm 14ft 14s 27 36 mph 996.9mb 51f
3:00pm 14.5ft 13s 27 34 mph 997.9mb 49f
2:00pm 13ft 14s 29 36 mph 999mb 48f
1:00pm 14ft 13s 20 31 mph 1000.6mb 50f
12:00pm 14ft 13s 25 31 mph 1001.5mb 51f
11:00am 15ft 14s 25 31 mph 1001.8mb 51f
10:00am 16ft 13s 22 31 mph 1001.4mb 50f
9:00am 15ft 14s 27 34 mph 1000.8mb 51f
8:00am 15.5ft 12s 27 31 mph 1000.1mb 51f
7:00am 16ft 14s 20 25 mph 999.7mb 51f
6:00am 16.5ft 14s 25 34 mph 999mb 51f
5:00am 15ft 13s 25 31 mph 998.4mb 50f
4:00am 14.5ft 13s 25 29 mph 997.8mb 50f
3:00am 15ft 14s 18 27 mph 997.5mb 50f
2:00am 14.5ft 14s 20 25 mph 996.7mb 51f
1:00am 14ft 15s 25
mph
996.4mb 51f
12:00am 13.5ft 14s 20 25 mph 995.7mb 51f
Fri 11/21 11:00pm 13.5ft 15s 20 25 mph 995.5mb 49f
10:00pm 14ft 15s 18 25 mph 995.4mb 50f
9:00pm 14.5ft 16s 29 36 mph 995.1mb 47f
8:00pm 15ft 16s 20 25 mph 994.8mb 51f
7:00pm 15ft 15s 18 22 mph 994.6mb 51f
6:00pm 15.5ft 13s 20 25 mph 994.4mb 51f
5:00pm 15.5ft 16s 18 22 mph 994mb 51f
4:00pm 18.5ft 13s 16 20 mph 993.8mb 50f
3:00pm 15.5ft 14s 16 20 mph 993.5mb 50f
2:00pm 18.5ft 15s 7 11 mph 993.7mb 48f
1:00pm 18ft 15s 9 13 mph 993.6mb 48f
12:00pm 17.5ft 16s 16 22 mph 993.7mb 47f
11:00am 16ft 16s 18 22 mph 993.4mb 47f
10:00am 15ft 16s 13 20 mph 992.9mb 50f
9:00am 14.5ft 17s 4 9 mph 993.3mb 48f
8:00am 14ft 17s 16 22 mph 992.9mb 49f
7:00am 13ft 10s 18 22 mph 993.1mb 51f
6:00am 13.5ft 12s 18 22 mph 992.9mb 50f
5:00am 13ft 11s 20 27 mph 993.1mb 50f
4:00am 13ft 11s 22 29 mph 992.6mb 50f
3:00am 14ft 11s 25 29 mph 992.4mb 50f
2:00am 14.5ft 10s 25 31 mph 992.1mb 50f
1:00am 14ft 11s 27 31 mph 991.6mb 50f
12:00am 14.5ft 10s 25 31 mph 991.3mb 51f
Thu 11/20 11:00pm 13.5ft 10s 27 34 mph 990.7mb 51f
10:00pm 13ft 8s 27 34 mph 990mb 51f
9:00pm 12.5ft 8s 29 36 mph 989.1mb 52f
8:00pm 13ft 8s 29 36 mph 987.4mb 52f
7:00pm 12ft 7s 34 45 mph 988mb 51f
5:00pm 10ft 6s 34 43 mph 992mb 50f
4:00pm 8.5ft 13s 31 40 mph 994.7mb 49f
3:00pm 8ft 12s 27 34 mph 996.4mb 51f
2:00pm 8ft 12s 27 31 mph 998.1mb 51f
1:00pm 8ft 12s 22 27 mph 999.2mb 50f
12:00pm 9ft 13s 16 20 mph 1000.7mb 49f
11:00am 9ft 11s 13 18 mph 1002mb 49f
10:00am 10ft 12s 11 16 mph 1003mb 48f
9:00am 11ft 12s 9 11 mph 1003.6mb 48f
8:00am 11ft 13s 7 11 mph 1003.9mb 48f
7:00am 10ft 13s 7 11 mph 1004.4mb 48f
6:00am 11.5ft 13s 11 16 mph 1005.2mb 48f
5:00am 11ft 13s 13 18 mph 1005.6mb 48f
4:00am 11ft 14s 18 20 mph 1005.7mb 48f
3:00am 11ft 14s 20 27 mph 1006.3mb 48f
2:00am 12ft 14s 22 29 mph 1005.9mb 48f
1:00am 12ft 8s 22 29 mph 1005.9mb 49f
12:00am 11.5ft 8s 25 29 mph 1006mb 49f
Wed 11/19 11:00pm 12ft 7s 27 31 mph 1006.4mb 49f
10:00pm 12.5ft 14s 27 36 mph 1006.8mb 49f
9:00pm  -   -  29
mph
1006.5mb 49f
8:00pm 12ft 14s 27 31 mph 1006.7mb 49f
7:00pm 12ft 14s 27 34 mph 1006.9mb 49f
6:00pm 13ft 13s 27 31 mph 1007.2mb 50f
5:00pm 13ft 14s 27 29 mph 1007mb 50f
4:00pm 12ft 14s 27 31 mph 1007.2mb 50f
3:00pm 11.5ft 14s 25 31 mph 1007.3mb 50f
2:00pm 12ft 14s 25 31 mph 1007.6mb 50f
1:00pm 11ft 15s 25 29 mph 1007.9mb 50f
12:00pm 11ft 14s 27 31 mph 1008.2mb 50f
11:00am  -   -  25
mph
- -
10:00am 10.5ft 16s 25 34 mph 1009mb 50f